Time;durP1;ratioP1;P1;durP2;ratioP2;P2;SDS_P1;SDS_P2;PMS_P1;PMS_P2;Temp;Humidity;BMP_temperature;BMP_pressure;BME280_temperature;BME280_humidity;BME280_pressure;Samples;Min_cycle;Max_cycle;Signal;HPM_P1;HPM_P2
2021/04/02 00:02:07;;;;;;;2.53;2.33;;;;;;;3.43;84.26;102499.59;4991412;28;20053;-75
2021/04/02 00:04:32;;;;;;;2.15;1.95;;;;;;;3.36;84.00;102496.38;5018283;28;20491;-78
2021/04/02 00:06:58;;;;;;;2.50;2.30;;;;;;;3.36;84.16;102498.13;5000047;28;20076;-76
2021/04/02 00:09:23;;;;;;;5.13;2.30;;;;;;;3.30;84.34;102489.66;4994601;28;20037;-76
2021/04/02 00:11:49;;;;;;;4.88;2.67;;;;;;;3.30;84.72;102501.81;5012376;28;20058;-77
2021/04/02 00:14:14;;;;;;;2.78;2.58;;;;;;;3.25;84.68;102496.75;5013588;28;20052;-76
2021/04/02 00:16:40;;;;;;;3.40;2.60;;;;;;;3.22;84.41;102493.44;4981658;28;20097;-76
2021/04/02 00:19:05;;;;;;;5.28;2.70;;;;;;;3.22;84.13;102493.44;5012854;28;20423;-76
2021/04/02 00:21:31;;;;;;;3.08;2.65;;;;;;;3.15;84.65;102486.81;4996109;28;20042;-75
2021/04/02 00:23:57;;;;;;;2.90;2.50;;;;;;;3.10;84.63;102486.94;5010671;28;20050;-75
2021/04/02 00:26:24;;;;;;;2.75;2.55;;;;;;;3.10;84.58;102476.56;5000311;28;20037;-76
2021/04/02 00:28:52;;;;;;;3.10;2.50;;;;;;;3.05;84.60;102481.06;5016249;28;20058;-76
2021/04/02 00:31:18;;;;;;;5.68;2.70;;;;;;;3.02;84.76;102487.22;5004720;28;20124;-75
2021/04/02 00:33:44;;;;;;;3.00;2.70;;;;;;;2.99;84.56;102476.13;5021028;28;20056;-76
2021/04/02 00:36:09;;;;;;;3.17;2.58;;;;;;;2.96;84.90;102482.28;4996767;28;20053;-76
2021/04/02 00:38:35;;;;;;;3.63;2.80;;;;;;;2.88;85.07;102479.09;4991996;28;20192;-78
2021/04/02 00:41:13;;;;;;;4.80;3.25;;;;;;;2.88;85.15;102479.94;4963616;28;20049;-76
2021/04/02 00:43:41;;;;;;;4.07;3.00;;;;;;;2.82;85.56;102484.50;5010445;28;20034;-75
2021/04/02 00:46:08;;;;;;;4.55;3.30;;;;;;;2.74;86.25;102474.41;5011421;28;20061;-76
2021/04/02 00:48:34;;;;;;;5.70;3.80;;;;;;;2.73;86.37;102478.75;5009542;28;20040;-75
2021/04/02 00:51:07;;;;;;;4.43;3.10;;;;;;;2.75;86.66;102483.00;5022134;28;20041;-76
2021/04/02 00:53:36;;;;;;;4.10;3.33;;;;;;;2.84;86.17;102477.50;5025840;28;20423;-78
2021/04/02 00:56:04;;;;;;;7.75;3.20;;;;;;;2.90;86.29;102485.06;4991230;28;20069;-76
2021/04/02 00:58:33;;;;;;;4.50;3.60;;;;;;;2.92;86.08;102491.91;4996929;28;20063;-75
2021/04/02 01:01:04;;;;;;;5.13;3.95;;;;;;;2.87;86.07;102485.19;5008918;28;20049;-75
2021/04/02 01:03:30;;;;;;;6.88;3.50;;;;;;;2.86;86.03;102491.25;5009090;28;20046;-74
2021/04/02 01:06:00;;;;;;;6.50;3.97;;;;;;;2.84;86.61;102477.50;4992364;28;20069;-76
2021/04/02 01:08:30;;;;;;;5.75;4.05;;;;;;;2.84;86.56;102485.28;5012274;28;20450;-75
2021/04/02 01:10:58;;;;;;;8.05;4.32;;;;;;;2.78;86.63;102485.50;4993963;28;20076;-77
2021/04/02 01:13:55;;;;;;;6.15;4.25;;;;;;;2.65;87.29;102492.84;5009897;28;20089;-76
2021/04/02 01:16:27;;;;;;;7.40;4.57;;;;;;;2.59;87.65;102490.47;4993862;28;20079;-76
2021/04/02 01:19:14;;;;;;;7.80;4.50;;;;;;;2.60;87.74;102489.56;5019647;28;20636;-77
2021/04/02 01:21:57;;;;;;;13.70;5.07;;;;;;;2.60;88.43;102495.59;5004766;28;20057;-76
2021/04/02 01:24:23;;;;;;;9.18;5.45;;;;;;;2.64;88.34;102492.00;5008429;28;20582;-76
2021/04/02 01:27:27;;;;;;;13.80;7.07;;;;;;;2.68;88.66;102487.56;4999139;28;20050;-76
2021/04/02 01:29:55;;;;;;;15.02;6.43;;;;;;;2.66;88.46;102482.44;4990090;28;20045;-76
2021/04/02 01:32:28;;;;;;;14.05;6.15;;;;;;;2.65;88.56;102478.13;4997679;28;20108;-76
2021/04/02 01:35:05;;;;;;;11.20;7.68;;;;;;;2.65;89.13;102478.13;4994217;28;20060;-77
2021/04/02 01:37:44;;;;;;;13.73;8.30;;;;;;;2.63;90.31;102485.13;4997360;28;20050;-77
2021/04/02 01:40:12;;;;;;;13.75;8.40;;;;;;;2.47;90.24;102482.22;5026385;28;20052;-76
2021/04/02 01:42:42;;;;;;;13.27;6.70;;;;;;;2.40;89.70;102464.34;4999592;28;20130;-76
2021/04/02 01:45:10;;;;;;;12.20;8.05;;;;;;;2.44;89.43;102465.94;5012532;28;20504;-78
2021/04/02 01:47:38;;;;;;;15.70;6.78;;;;;;;2.38;88.59;102466.97;5013770;28;20049;-78
2021/04/02 01:50:07;;;;;;;10.38;7.05;;;;;;;2.38;87.85;102466.13;4997390;28;20567;-75
2021/04/02 01:52:34;;;;;;;10.68;7.07;;;;;;;2.36;88.21;102463.59;4997269;28;20045;-77
2021/04/02 01:55:01;;;;;;;11.40;7.32;;;;;;;2.37;88.25;102464.44;5012957;28;20501;-75
2021/04/02 01:57:31;;;;;;;14.82;7.88;;;;;;;2.36;88.96;102462.75;5015867;28;20037;-77
2021/04/02 02:00:00;;;;;;;10.70;7.70;;;;;;;2.38;88.93;102460.97;5010938;28;20038;-76
2021/04/02 02:02:27;;;;;;;12.43;7.68;;;;;;;2.35;89.45;102459.31;5014190;28;20477;-76
2021/04/02 02:04:56;;;;;;;12.10;7.57;;;;;;;2.28;89.61;102455.22;5013117;28;20053;-78
2021/04/02 02:07:22;;;;;;;12.65;8.32;;;;;;;2.16;90.03;102464.25;4998058;28;20080;-76
2021/04/02 02:10:01;;;;;;;14.60;7.90;;;;;;;2.00;91.02;102469.06;4999920;28;20053;-77
2021/04/02 02:12:37;;;;;;;13.82;8.82;;;;;;;1.84;90.97;102460.94;5002634;28;20034;-76
2021/04/02 02:15:17;;;;;;;13.45;8.82;;;;;;;1.70;92.65;102451.03;5004622;28;20052;-75
2021/04/02 02:17:48;;;;;;;15.20;9.85;;;;;;;1.69;92.72;102464.84;5013568;28;20046;-76
2021/04/02 02:20:15;;;;;;;14.25;8.80;;;;;;;1.69;92.40;102469.16;5014029;28;20678;-78
2021/04/02 02:22:42;;;;;;;14.43;9.70;;;;;;;1.66;93.06;102470.13;5025462;28;20050;-76
2021/04/02 02:25:16;;;;;;;12.65;8.65;;;;;;;1.63;91.88;102469.38;5015635;28;20045;-75
2021/04/02 02:27:53;;;;;;;13.82;9.30;;;;;;;1.51;92.30;102463.66;4999245;28;20045;-77
2021/04/02 02:30:23;;;;;;;16.73;10.18;;;;;;;1.58;93.36;102464.31;5013062;28;20083;-75
2021/04/02 02:32:57;;;;;;;16.63;10.10;;;;;;;1.57;93.48;102461.81;5013925;28;20475;-74
2021/04/02 02:35:26;;;;;;;19.15;10.63;;;;;;;1.53;93.46;102458.47;4993351;28;20058;-74
2021/04/02 02:37:57;;;;;;;19.73;10.15;;;;;;;1.51;93.16;102463.66;5000937;28;20034;-75
2021/04/02 02:40:27;;;;;;;19.35;10.38;;;;;;;1.52;92.61;102457.59;4995197;28;20046;-77
2021/04/02 02:42:56;;;;;;;15.48;9.80;;;;;;;1.55;91.46;102451.50;4977901;28;20508;-78
2021/04/02 02:45:24;;;;;;;15.15;9.93;;;;;;;1.50;91.46;102443.84;5006253;28;20045;-75
2021/04/02 02:47:50;;;;;;;18.38;9.85;;;;;;;1.50;90.83;102450.78;5016216;28;20056;-77
2021/04/02 02:50:20;;;;;;;16.05;10.05;;;;;;;1.45;91.69;102443.16;5011534;28;20428;-74
2021/04/02 02:52:50;;;;;;;17.80;10.82;;;;;;;1.47;91.54;102445.69;5012300;28;20046;-76
2021/04/02 02:55:20;;;;;;;17.92;10.88;;;;;;;1.46;91.01;102438.84;5009347;28;20064;-76
2021/04/02 02:57:47;;;;;;;22.30;11.60;;;;;;;1.43;91.52;102441.50;5017898;28;20040;-75
2021/04/02 03:00:17;;;;;;;22.30;12.38;;;;;;;1.39;92.58;102442.50;5010964;28;20054;-76
2021/04/02 03:02:46;;;;;;;19.38;11.73;;;;;;;1.36;92.33;102426.19;5020057;28;20523;-76
2021/04/02 03:05:15;;;;;;;18.45;11.20;;;;;;;1.33;91.65;102428.00;4990766;28;20057;-77
2021/04/02 03:07:42;;;;;;;21.15;12.13;;;;;;;1.33;91.26;102430.59;4978812;28;20046;-79
2021/04/02 03:10:10;;;;;;;22.65;12.48;;;;;;;1.28;91.83;102437.63;4992116;28;20049;-77
2021/04/02 03:12:39;;;;;;;25.17;13.25;;;;;;;1.28;92.57;102435.03;5010412;28;20053;-78
2021/04/02 03:15:07;;;;;;;22.85;12.45;;;;;;;1.40;92.33;102423.50;5007803;28;20296;-76
2021/04/02 03:17:35;;;;;;;24.50;13.95;;;;;;;1.58;92.57;102430.69;5009196;28;20496;-78
2021/04/02 03:20:03;;;;;;;27.33;15.70;;;;;;;1.70;94.07;102432.06;5010499;28;20050;-78
2021/04/02 03:22:29;;;;;;;26.25;14.13;;;;;;;1.86;95.21;102422.06;4994099;28;20046;-75
2021/04/02 03:25:14;;;;;;;25.20;15.15;;;;;;;2.16;95.08;102409.88;4977433;28;20404;-77
2021/04/02 03:27:47;;;;;;;31.75;16.73;;;;;;;2.44;95.25;102406.34;4992140;28;20057;-74
2021/04/02 03:30:18;;;;;;;32.75;17.45;;;;;;;2.55;95.02;102406.00;5017913;28;20069;-78
2021/04/02 03:32:49;;;;;;;43.17;20.58;;;;;;;2.54;95.17;102410.31;4995592;28;20041;-76
2021/04/02 03:35:17;;;;;;;53.78;22.48;;;;;;;2.55;95.50;102412.00;4997411;28;20034;-76
2021/04/02 03:37:47;;;;;;;55.83;22.65;;;;;;;2.51;95.64;102413.84;5008815;28;20045;-75
2021/04/02 03:40:15;;;;;;;56.70;23.17;;;;;;;2.43;96.21;102409.81;5011540;28;20046;-76
2021/04/02 03:42:44;;;;;;;64.63;24.73;;;;;;;2.52;96.11;102418.16;5021345;28;20160;-73
2021/04/02 03:45:14;;;;;;;61.20;22.58;;;;;;;2.51;96.30;102415.59;4985641;28;20037;-76
2021/04/02 03:47:44;;;;;;;59.78;23.33;;;;;;;2.59;95.97;102423.94;5008394;28;20124;-76
2021/04/02 03:50:13;;;;;;;60.72;23.08;;;;;;;2.67;96.06;102413.31;5008495;28;20050;-75
2021/04/02 03:52:45;;;;;;;57.63;24.80;;;;;;;2.69;96.42;102412.38;5007980;28;20614;-75
2021/04/02 03:55:17;;;;;;;51.55;22.83;;;;;;;2.71;96.29;102417.47;4989738;28;20038;-76
2021/04/02 03:57:46;;;;;;;64.30;23.48;;;;;;;2.68;96.40;102408.09;5014914;28;20045;-74
2021/04/02 04:00:24;;;;;;;68.85;23.95;;;;;;;2.67;96.45;102405.53;4992310;28;20046;-75
2021/04/02 04:03:03;;;;;;;63.50;21.65;;;;;;;2.68;97.15;102413.28;5007216;28;20535;-77
2021/04/02 04:05:30;;;;;;;55.25;23.02;;;;;;;2.66;97.27;102404.72;4992691;28;20050;-74
2021/04/02 04:07:59;;;;;;;53.15;20.70;;;;;;;2.83;96.61;102398.91;4991633;28;20049;-74
2021/04/02 04:10:26;;;;;;;66.88;21.95;;;;;;;2.71;96.64;102401.94;4986778;28;20062;-74
2021/04/02 04:12:55;;;;;;;75.18;21.58;;;;;;;2.69;96.73;102407.19;4980051;28;20053;-76
2021/04/02 04:15:23;;;;;;;50.63;20.25;;;;;;;2.70;97.00;102400.25;5015843;28;20037;-75
2021/04/02 04:17:50;;;;;;;76.18;23.50;;;;;;;2.72;97.41;102411.41;4995724;28;20057;-77
2021/04/02 04:20:21;;;;;;;90.47;24.45;;;;;;;2.72;97.07;102412.25;4997991;28;20041;-78
2021/04/02 04:23:23;;;;;;;60.58;21.95;;;;;;;2.72;96.97;102403.63;4999405;28;20412;-76
2021/04/02 04:25:53;;;;;;;53.33;21.27;;;;;;;2.73;97.54;102408.78;5007080;28;20559;-76
2021/04/02 04:28:21;;;;;;;56.00;22.90;;;;;;;2.73;97.64;102410.50;5004484;28;20050;-77
2021/04/02 04:30:49;;;;;;;63.35;23.25;;;;;;;2.81;97.28;102408.50;5006760;28;20044;-76
2021/04/02 04:33:17;;;;;;;55.05;22.92;;;;;;;2.85;97.58;102409.22;5008845;28;20057;-76
2021/04/02 04:35:46;;;;;;;54.53;23.98;;;;;;;2.91;97.02;102407.25;5008017;28;20034;-76
2021/04/02 04:38:12;;;;;;;63.22;28.35;;;;;;;2.91;96.82;102411.59;4995699;28;20508;-75
2021/04/02 04:40:39;;;;;;;69.53;29.70;;;;;;;2.98;97.10;102405.28;5009282;28;20128;-73
2021/04/02 04:43:09;;;;;;;71.90;30.02;;;;;;;3.08;96.87;102404.03;5006953;28;20076;-76
2021/04/02 04:45:35;;;;;;;71.32;28.70;;;;;;;3.23;96.36;102412.97;4999842;28;20133;-76
2021/04/02 04:48:01;;;;;;;80.07;30.80;;;;;;;3.13;96.26;102403.88;4992018;28;20443;-76
2021/04/02 04:50:27;;;;;;;75.35;29.52;;;;;;;3.14;96.37;102404.72;4991881;28;20042;-76
2021/04/02 04:53:06;;;;;;;76.22;30.55;;;;;;;3.07;96.91;102399.75;5008088;28;20050;-76
2021/04/02 04:55:35;;;;;;;86.40;33.60;;;;;;;3.16;97.16;102395.97;4972047;28;20048;-76
2021/04/02 04:58:02;;;;;;;73.03;35.63;;;;;;;3.11;97.17;102401.34;5002485;28;20042;-73
2021/04/02 05:00:31;;;;;;;79.20;38.20;;;;;;;3.09;97.16;102399.72;4994311;28;20034;-75
2021/04/02 05:02:57;;;;;;;78.55;38.15;;;;;;;3.10;97.22;102402.22;5020772;28;20030;-75
2021/04/02 05:05:32;;;;;;;71.75;36.63;;;;;;;3.11;97.13;102397.91;5007857;28;20053;-75
2021/04/02 05:08:01;;;;;;;64.78;34.47;;;;;;;3.07;96.19;102399.75;4978087;28;20075;-74
2021/04/02 05:10:27;;;;;;;54.20;30.70;;;;;;;3.00;96.40;102392.28;5010385;28;20042;-74
2021/04/02 05:12:54;;;;;;;52.75;28.85;;;;;;;2.93;95.80;102400.25;5012644;28;20041;-74
2021/04/02 05:15:20;;;;;;;47.42;27.70;;;;;;;2.86;95.27;102401.41;5016324;28;20141;-75
2021/04/02 05:17:46;;;;;;;34.40;22.35;;;;;;;2.75;95.01;102397.50;5011261;28;20046;-76
2021/04/02 05:20:13;;;;;;;30.42;20.60;;;;;;;2.77;94.90;102401.75;5009972;28;20404;-76
2021/04/02 05:22:38;;;;;;;31.02;19.90;;;;;;;2.71;95.09;102399.34;5018434;28;20116;-76
2021/04/02 05:25:05;;;;;;;28.95;18.45;;;;;;;2.76;94.96;102401.78;5002397;28;20132;-75
2021/04/02 05:27:31;;;;;;;25.67;13.32;;;;;;;2.60;94.04;102394.56;5012952;28;20050;-75
2021/04/02 05:29:57;;;;;;;20.95;12.52;;;;;;;2.61;94.41;102395.41;5009681;28;20060;-75
2021/04/02 05:32:23;;;;;;;22.70;13.77;;;;;;;2.63;93.86;102389.25;5018441;28;20045;-75
2021/04/02 05:34:48;;;;;;;23.73;12.35;;;;;;;2.48;93.52;102403.59;5009500;28;20581;-75
2021/04/02 05:37:14;;;;;;;23.00;11.20;;;;;;;2.37;93.67;102402.28;5020120;28;20129;-76
2021/04/02 05:39:39;;;;;;;27.20;12.48;;;;;;;2.36;94.32;102396.25;5009995;28;20057;-74
2021/04/02 05:42:06;;;;;;;26.23;10.30;;;;;;;2.52;93.50;102404.34;4996005;28;20168;-75
2021/04/02 05:44:35;;;;;;;23.80;9.70;;;;;;;2.40;92.43;102405.63;4992200;28;20043;-78
2021/04/02 05:47:04;;;;;;;22.92;10.25;;;;;;;2.39;92.33;102405.66;5003858;28;20041;-77
2021/04/02 05:49:31;;;;;;;19.80;9.02;;;;;;;2.39;92.73;102406.50;5018949;28;20049;-76
2021/04/02 05:51:57;;;;;;;24.80;9.95;;;;;;;2.55;93.08;102403.41;5012349;28;20049;-75
2021/04/02 05:54:28;;;;;;;31.45;11.48;;;;;;;2.48;92.65;102410.53;5012030;28;20464;-75
2021/04/02 05:56:54;;;;;;;33.30;12.18;;;;;;;2.45;92.46;102413.22;4995019;28;20531;-75
2021/04/02 05:59:20;;;;;;;32.30;11.57;;;;;;;2.48;92.28;102420.88;5004090;28;20065;-75
2021/04/02 06:01:46;;;;;;;26.63;11.52;;;;;;;2.42;92.08;102414.16;5013723;28;20073;-75
2021/04/02 06:04:13;;;;;;;27.60;10.55;;;;;;;2.38;92.07;102406.56;4992755;28;20049;-76
2021/04/02 06:06:39;;;;;;;23.55;10.80;;;;;;;2.39;91.78;102416.84;5010313;28;20424;-75
2021/04/02 06:09:05;;;;;;;24.63;9.80;;;;;;;2.48;91.71;102418.28;5010835;28;20143;-76
2021/04/02 06:11:31;;;;;;;30.73;9.52;;;;;;;2.59;91.41;102418.78;5012308;28;20046;-75
2021/04/02 06:13:56;;;;;;;18.83;7.78;;;;;;;2.59;91.38;102428.28;5015353;28;20034;-75
2021/04/02 06:16:23;;;;;;;19.13;7.47;;;;;;;2.61;91.43;102419.56;5003535;28;20060;-75
2021/04/02 06:18:49;;;;;;;20.40;7.32;;;;;;;2.72;91.16;102416.59;5010746;28;20049;-75
2021/04/02 06:21:15;;;;;;;20.30;7.22;;;;;;;2.82;90.29;102410.16;5013098;28;20034;-79
2021/04/02 06:23:41;;;;;;;22.10;7.22;;;;;;;2.82;90.20;102407.56;5010091;28;20042;-77
2021/04/02 06:26:13;;;;;;;27.80;7.43;;;;;;;2.91;89.74;102415.03;5011930;28;20046;-75
2021/04/02 06:28:41;;;;;;;20.50;6.93;;;;;;;3.10;88.00;102410.00;5009613;28;20037;-76
2021/04/02 06:31:17;;;;;;;17.98;6.40;;;;;;;3.17;89.05;102404.63;5015570;28;20793;-77
2021/04/02 06:33:50;;;;;;;21.45;6.55;;;;;;;3.27;88.85;102411.97;4995274;28;20052;-75
2021/04/02 06:36:23;;;;;;;21.00;6.63;;;;;;;3.33;89.11;102416.06;4976404;28;20607;-78
2021/04/02 06:38:51;;;;;;;24.38;6.05;;;;;;;3.40;87.35;102414.94;5011346;28;20049;-76
2021/04/02 06:41:18;;;;;;;18.80;6.22;;;;;;;3.54;87.59;102411.78;5011470;28;20046;-76
2021/04/02 06:43:47;;;;;;;17.80;6.25;;;;;;;3.53;87.23;102399.75;5011627;28;20049;-75
2021/04/02 06:46:17;;;;;;;19.10;6.93;;;;;;;3.74;85.86;102400.63;5020784;28;20716;-76
2021/04/02 06:48:43;;;;;;;14.82;6.38;;;;;;;3.78;85.41;102396.19;4995340;28;20041;-76
2021/04/02 06:51:20;;;;;;;18.65;5.93;;;;;;;3.84;86.31;102391.59;5014674;28;20053;-76
2021/04/02 06:53:55;;;;;;;15.52;5.22;;;;;;;3.97;85.57;102397.09;4993514;28;20046;-76
2021/04/02 06:56:21;;;;;;;14.20;4.63;;;;;;;3.94;84.85;102405.03;5013409;28;20049;-75
2021/04/02 06:58:49;;;;;;;24.08;5.00;;;;;;;4.06;84.29;102406.28;4996024;28;20049;-75
2021/04/02 07:01:16;;;;;;;16.02;4.40;;;;;;;4.07;84.26;102405.38;4971183;28;20033;-76
2021/04/02 07:03:44;;;;;;;19.73;4.60;;;;;;;4.16;83.11;102396.34;5008505;28;20133;-75
2021/04/02 07:06:10;;;;;;;24.10;4.82;;;;;;;4.21;84.48;102390.03;5006454;28;20049;-76
2021/04/02 07:08:38;;;;;;;15.35;4.05;;;;;;;4.33;83.50;102395.63;5002672;28;20045;-74
2021/04/02 07:11:05;;;;;;;10.73;3.80;;;;;;;4.39;83.87;102387.56;5018150;28;20053;-75
2021/04/02 07:13:48;;;;;;;15.50;4.32;;;;;;;4.45;82.67;102395.13;4996206;28;20046;-76
2021/04/02 07:16:15;;;;;;;17.15;3.83;;;;;;;4.52;80.97;102395.69;5012920;28;20137;-76
2021/04/02 07:18:43;;;;;;;17.63;3.40;;;;;;;4.51;80.81;102392.25;5009608;28;20042;-78
2021/04/02 07:21:09;;;;;;;15.32;3.70;;;;;;;4.38;81.46;102386.72;5015191;28;20034;-77
2021/04/02 07:23:35;;;;;;;14.73;3.83;;;;;;;4.41;82.44;102393.56;5004455;28;20061;-80
2021/04/02 07:26:01;;;;;;;19.48;3.45;;;;;;;4.61;81.11;102390.09;4995942;28;20050;-77
2021/04/02 07:28:45;;;;;;;14.52;3.38;;;;;;;4.53;82.21;102393.03;5004384;28;20381;-76
2021/04/02 07:31:11;;;;;;;10.20;3.28;;;;;;;4.60;80.90;102388.41;5004288;28;20113;-76
2021/04/02 07:33:39;;;;;;;17.17;3.22;;;;;;;4.77;79.90;102392.88;5003678;28;20066;-78
2021/04/02 07:36:05;;;;;;;15.43;2.60;;;;;;;4.87;79.05;102387.16;5009252;28;20045;-76
2021/04/02 07:38:34;;;;;;;22.10;3.33;;;;;;;4.87;77.73;102386.31;5004024;28;20462;-74
2021/04/02 07:41:11;;;;;;;14.57;2.97;;;;;;;5.00;77.45;102384.84;5027795;28;20042;-76
2021/04/02 07:43:53;;;;;;;13.60;3.67;;;;;;;5.09;77.29;102381.00;5019149;28;20041;-77
2021/04/02 07:46:23;;;;;;;19.02;3.03;;;;;;;5.15;77.17;102369.47;5005353;28;20148;-76
2021/04/02 07:49:09;;;;;;;14.93;2.83;;;;;;;5.29;76.67;102363.63;5010428;28;20041;-77
2021/04/02 07:51:46;;;;;;;15.32;3.03;;;;;;;5.32;76.63;102364.31;4995607;28;20044;-76
2021/04/02 07:54:21;;;;;;;15.73;2.50;;;;;;;5.55;74.29;102351.97;5009192;28;20428;-78
2021/04/02 07:56:50;;;;;;;17.38;2.15;;;;;;;5.63;73.51;102348.06;5011583;28;20046;-76
2021/04/02 07:59:16;;;;;;;15.55;2.88;;;;;;;5.49;73.50;102354.88;4974155;28;20103;-76
2021/04/02 08:01:59;;;;;;;16.45;2.60;;;;;;;5.55;72.58;102344.16;4979884;28;20136;-75
2021/04/02 08:04:43;;;;;;;18.25;3.00;;;;;;;5.70;74.61;102346.00;5009214;28;20562;-77
2021/04/02 08:07:16;;;;;;;13.32;2.88;;;;;;;5.89;73.66;102337.28;5006003;28;20861;-76
2021/04/02 08:09:48;;;;;;;15.27;2.40;;;;;;;5.95;72.31;102329.16;5011950;28;20054;-75
2021/04/02 08:12:15;;;;;;;18.25;3.10;;;;;;;6.10;74.21;102320.59;5012087;28;20069;-76
2021/04/02 08:14:48;;;;;;;13.88;2.30;;;;;;;6.10;72.17;102322.34;5018746;28;20068;-79
2021/04/02 08:17:19;;;;;;;18.23;2.80;;;;;;;6.15;70.67;102320.38;5005913;28;20064;-76
2021/04/02 08:19:45;;;;;;;16.65;2.85;;;;;;;6.27;71.13;102321.47;5017227;28;20049;-74
2021/04/02 08:22:17;;;;;;;13.25;2.25;;;;;;;6.38;70.90;102319.16;5011904;28;20046;-76
2021/04/02 08:24:45;;;;;;;19.63;2.67;;;;;;;6.43;70.29;102307.56;5010916;28;20133;-77
2021/04/02 08:27:11;;;;;;;16.00;2.97;;;;;;;6.29;69.54;102311.81;5016376;28;20053;-76
2021/04/02 08:29:39;;;;;;;13.50;2.75;;;;;;;6.39;70.68;102306.06;5014863;28;20849;-76
2021/04/02 08:32:05;;;;;;;20.42;2.85;;;;;;;6.38;70.80;102306.13;4992775;28;20045;-76
2021/04/02 08:34:32;;;;;;;16.10;2.85;;;;;;;6.60;70.53;102309.28;5009851;28;20527;-76
2021/04/02 08:37:01;;;;;;;13.25;1.80;;;;;;;6.77;68.99;102317.97;4995029;28;20101;-78
2021/04/02 08:39:27;;;;;;;20.02;2.90;;;;;;;6.95;68.27;102314.34;5017171;28;20056;-76
2021/04/02 08:42:02;;;;;;;20.55;2.88;;;;;;;6.98;68.15;102327.22;5014303;28;20584;-77
2021/04/02 08:44:32;;;;;;;20.75;2.83;;;;;;;7.11;68.05;102324.78;5003069;28;20491;-75
2021/04/02 08:47:00;;;;;;;23.33;3.22;;;;;;;7.08;68.61;102317.09;5032416;28;20050;-75
2021/04/02 08:49:25;;;;;;;22.67;2.97;;;;;;;7.26;67.87;102317.84;5020365;28;20468;-75
2021/04/02 08:51:51;;;;;;;14.93;2.95;;;;;;;7.39;66.34;102320.63;5017809;28;20065;-75
2021/04/02 08:54:19;;;;;;;17.50;2.80;;;;;;;7.33;67.03;102324.41;5013392;28;20052;-77
2021/04/02 08:56:46;;;;;;;23.20;3.50;;;;;;;7.20;67.52;102323.44;5013271;28;20041;-76
2021/04/02 08:59:13;;;;;;;16.80;2.83;;;;;;;7.29;68.09;102325.53;5005409;28;20046;-74
2021/04/02 09:01:41;;;;;;;17.23;2.90;;;;;;;7.33;68.46;102329.66;4997045;28;20066;-75
2021/04/02 09:04:09;;;;;;;17.75;3.40;;;;;;;7.30;68.36;102327.19;4996952;28;20048;-75
2021/04/02 09:06:35;;;;;;;20.45;3.20;;;;;;;7.10;67.92;102322.25;5002692;28;20046;-76
2021/04/02 09:09:03;;;;;;;20.35;3.63;;;;;;;7.14;67.17;102332.44;5022966;28;20046;-75
2021/04/02 09:11:29;;;;;;;20.75;2.70;;;;;;;7.27;69.08;102322.16;5012635;28;20074;-77
2021/04/02 09:13:55;;;;;;;19.70;3.83;;;;;;;7.14;67.29;102327.22;5012756;28;20069;-77
2021/04/02 09:16:21;;;;;;;20.15;4.28;;;;;;;7.32;68.39;102333.16;5004466;28;20062;-76
2021/04/02 09:18:56;;;;;;;20.67;4.35;;;;;;;6.94;67.89;102338.75;4995472;28;20057;-76
2021/04/02 09:21:24;;;;;;;22.15;3.20;;;;;;;7.07;69.59;102333.69;4998033;28;20423;-75
2021/04/02 09:23:53;;;;;;;25.10;3.47;;;;;;;6.97;69.58;102338.59;5013161;28;20096;-78
2021/04/02 09:26:21;;;;;;;15.40;2.97;;;;;;;6.82;68.62;102334.22;5015054;28;20042;-76
2021/04/02 09:28:48;;;;;;;19.05;3.30;;;;;;;6.70;69.46;102334.84;5012985;28;20057;-76
2021/04/02 09:31:25;;;;;;;21.60;2.92;;;;;;;6.80;69.64;102317.81;5013177;28;20684;-77
2021/04/02 09:33:52;;;;;;;27.95;3.30;;;;;;;6.62;69.11;102328.28;5013523;28;20057;-75
2021/04/02 09:36:20;;;;;;;18.80;2.65;;;;;;;6.68;69.71;102321.91;5013922;28;20149;-76
2021/04/02 09:38:47;;;;;;;17.83;3.55;;;;;;;6.77;70.56;102329.22;4997950;28;20053;-75
2021/04/02 09:41:14;;;;;;;25.83;3.45;;;;;;;6.75;69.59;102318.03;5014779;28;20104;-76
2021/04/02 09:43:45;;;;;;;20.52;3.38;;;;;;;6.88;69.59;102323.44;4999762;28;20048;-78
2021/04/02 09:46:26;;;;;;;12.27;2.97;;;;;;;6.75;69.41;102304.16;5010585;28;20731;-77
2021/04/02 09:48:52;;;;;;;22.02;3.10;;;;;;;7.04;68.01;102305.16;4995531;28;20083;-78
2021/04/02 09:51:18;;;;;;;19.35;3.00;;;;;;;6.97;67.04;102311.66;5012870;28;20489;-75
2021/04/02 09:53:43;;;;;;;15.43;3.42;;;;;;;6.91;67.90;102309.38;4979019;28;20050;-74
2021/04/02 09:56:09;;;;;;;15.90;2.88;;;;;;;7.15;67.99;102304.56;4982020;28;20686;-76
2021/04/02 09:58:35;;;;;;;19.65;3.90;;;;;;;7.35;67.55;102299.06;4998664;28;20045;-75
2021/04/02 10:01:00;;;;;;;19.38;3.83;;;;;;;7.32;65.87;102303.63;5015441;28;20084;-76
2021/04/02 10:03:26;;;;;;;12.85;2.92;;;;;;;7.36;65.37;102292.06;5029440;28;20064;-76
2021/04/02 10:05:52;;;;;;;24.65;3.78;;;;;;;7.28;65.53;102299.50;4974631;28;20045;-77
2021/04/02 10:08:18;;;;;;;16.80;3.30;;;;;;;7.35;65.75;102286.03;5014850;28;20038;-76
2021/04/02 10:10:43;;;;;;;17.05;3.25;;;;;;;7.13;65.01;102298.59;5014527;28;20716;-77
2021/04/02 10:13:09;;;;;;;17.23;3.72;;;;;;;7.13;67.04;102296.81;5008680;28;20042;-75
2021/04/02 10:15:34;;;;;;;23.40;4.00;;;;;;;6.98;66.92;102290.69;5013061;28;20042;-77
2021/04/02 10:18:00;;;;;;;19.85;3.80;;;;;;;7.08;67.12;102290.19;5015323;28;20056;-76
2021/04/02 10:20:25;;;;;;;26.55;3.70;;;;;;;7.11;66.63;102282.19;5009329;28;20598;-76
2021/04/02 10:22:51;;;;;;;22.65;3.67;;;;;;;7.12;66.94;102287.31;5017441;28;20045;-77
2021/04/02 10:25:16;;;;;;;21.05;3.58;;;;;;;7.16;67.09;102299.28;5010813;28;20466;-75
2021/04/02 10:27:42;;;;;;;20.08;3.40;;;;;;;7.00;67.78;102291.44;5018624;28;20726;-76
2021/04/02 10:30:08;;;;;;;23.75;4.10;;;;;;;6.70;69.20;102293.13;5025227;28;20042;-77
2021/04/02 10:32:34;;;;;;;22.08;3.67;;;;;;;6.76;69.56;102300.63;5011451;28;20046;-76
2021/04/02 10:34:59;;;;;;;19.35;4.80;;;;;;;6.73;70.97;102292.97;5004484;28;20570;-76
2021/04/02 10:37:25;;;;;;;24.50;3.88;;;;;;;6.84;69.63;102288.03;5013858;28;20054;-75
2021/04/02 10:39:50;;;;;;;19.35;3.20;;;;;;;6.83;69.42;102292.38;5020608;28;20125;-76
2021/04/02 10:42:16;;;;;;;16.30;3.70;;;;;;;6.88;68.91;102283.47;4963693;28;20104;-74
2021/04/02 10:44:41;;;;;;;27.58;4.35;;;;;;;6.85;69.56;102281.03;5001080;28;20034;-77
2021/04/02 10:47:07;;;;;;;20.65;3.95;;;;;;;6.80;70.04;102284.75;5021625;28;20038;-74
2021/04/02 10:49:32;;;;;;;21.58;4.00;;;;;;;6.79;69.32;102284.81;4999820;28;20448;-76
2021/04/02 10:51:58;;;;;;;25.83;3.50;;;;;;;6.54;70.14;102285.31;4990940;28;20052;-76
2021/04/02 10:54:23;;;;;;;20.77;3.08;;;;;;;6.55;70.58;102280.00;4999736;28;20042;-75
2021/04/02 10:56:49;;;;;;;17.98;3.78;;;;;;;6.67;71.95;102275.91;5017927;28;20045;-76
2021/04/02 10:59:15;;;;;;;22.52;3.97;;;;;;;6.73;70.99;102278.16;5022489;28;20053;-74
2021/04/02 11:01:40;;;;;;;18.38;3.25;;;;;;;6.85;72.03;102273.19;5010092;28;20427;-79
2021/04/02 11:04:06;;;;;;;20.80;3.28;;;;;;;6.93;70.58;102276.22;5000738;28;20078;-75
2021/04/02 11:06:31;;;;;;;23.83;3.50;;;;;;;6.93;70.03;102264.03;5000323;28;20053;-75
2021/04/02 11:08:57;;;;;;;17.02;3.25;;;;;;;6.87;69.44;102253.94;4982371;28;20468;-76
2021/04/02 11:11:22;;;;;;;19.23;3.83;;;;;;;6.99;70.06;102258.47;4994227;28;20064;-75
2021/04/02 11:13:48;;;;;;;17.40;3.70;;;;;;;7.13;69.97;102267.28;4998550;28;20427;-76
2021/04/02 11:16:13;;;;;;;20.92;3.92;;;;;;;7.24;68.76;102264.91;4994181;28;20135;-75
2021/04/02 11:18:41;;;;;;;19.23;2.95;;;;;;;7.14;68.60;102267.22;4994265;28;20149;-76
2021/04/02 11:21:07;;;;;;;17.67;4.15;;;;;;;7.25;69.22;102261.34;5011417;28;20056;-74
2021/04/02 11:23:32;;;;;;;18.45;3.25;;;;;;;7.31;68.49;102242.75;5027944;28;20041;-77
2021/04/02 11:25:58;;;;;;;17.75;3.53;;;;;;;7.10;67.96;102241.34;5010754;28;20077;-76
2021/04/02 11:28:24;;;;;;;14.48;2.67;;;;;;;7.20;67.67;102235.53;5009841;28;20054;-74
2021/04/02 11:30:50;;;;;;;12.13;2.63;;;;;;;7.09;67.31;102237.91;4976580;28;20050;-75
2021/04/02 11:33:15;;;;;;;16.75;2.78;;;;;;;7.11;68.12;102220.41;5014078;28;20041;-74